X23df,-a — OVJP2 — position and weather

sailwx.info

Track history (hours):
 
Tides and Currents Weather Stations Pressure Air Temp Water Temp Dewpoint Dewpoint Depression Visibility Wind Speed Wind Dir Waves Ship Positions

X23df,-a

Last reported at 2018-Feb-24 08:00 UTC. Time now 2018-Feb-24 08:30 UTC.
Position N 53°29' E 009°57'.

Length 93 m; draft 5.6 m.

Type: Tanker. MMSI: 220397594.

Date/timePositionNaut miles runAvg speedWind from/ knotsBaromVisibWave heightAir tempDewpointWater temp
2018-Feb-24 08:00N 53°29' E 009°57'0 0.0
2018-Feb-24 07:24N 53°29' E 009°57'0 0.0
2018-Feb-24 07:00N 53°29' E 009°57'0 0.0
2018-Feb-24 06:30N 53°29' E 009°57'0 0.0
2018-Feb-24 06:00N 53°29' E 009°57'0 0.0
2018-Feb-24 05:30N 53°29' E 009°57'0 0.0
2018-Feb-24 04:57N 53°29' E 009°57'0 0.0
2018-Feb-24 04:30N 53°29' E 009°57'0 0.0
2018-Feb-24 04:00N 53°29' E 009°57'0 0.0
2018-Feb-24 03:30N 53°29' E 009°57'0 0.0
2018-Feb-24 02:57N 53°29' E 009°57'0 0.0
2018-Feb-24 02:30N 53°29' E 009°57'0 0.0
2018-Feb-24 01:57N 53°29' E 009°57'0 0.0
2018-Feb-24 01:24N 53°29' E 009°57'0 0.0
2018-Feb-24 01:00N 53°29' E 009°57'0 0.0
2018-Feb-24 00:30N 53°29' E 009°57'0 0.0
2018-Feb-24 00:00N 53°29' E 009°57'0 0.0
2018-Feb-23 23:27N 53°29' E 009°57'0 0.0
2018-Feb-23 22:57N 53°29' E 009°57'0 0.0
2018-Feb-23 22:27N 53°29' E 009°57'0 0.0
2018-Feb-23 21:51N 53°29' E 009°57'0 0.0
2018-Feb-23 21:30N 53°29' E 009°57'0 0.0
2018-Feb-23 20:57N 53°29' E 009°57'0 0.0
2018-Feb-23 20:30N 53°29' E 009°57'0 0.0
2018-Feb-23 19:57N 53°29' E 009°57'0 0.0
2018-Feb-23 19:27N 53°29' E 009°57'0 0.0
2018-Feb-23 19:00N 53°29' E 009°57'0 0.0
2018-Feb-23 18:27N 53°29' E 009°57'0 0.0
2018-Feb-23 17:45N 53°29' E 009°57'0 0.0
2018-Feb-23 17:30N 53°29' E 009°57'0 0.0
2018-Feb-23 17:00N 53°29' E 009°57'0 0.0
2018-Feb-23 16:30N 53°29' E 009°57'0 0.0
2018-Feb-23 15:57N 53°29' E 009°57'0 0.0
2018-Feb-23 15:30N 53°29' E 009°57'0 0.0
2018-Feb-23 14:57N 53°29' E 009°57'0 0.0
2018-Feb-23 14:27N 53°29' E 009°57'0 0.0
2018-Feb-23 13:54N 53°29' E 009°57'0 0.0
2018-Feb-23 13:27N 53°29' E 009°57'0 0.0
2018-Feb-23 13:00N 53°29' E 009°57'0 0.0
2018-Feb-23 12:30N 53°29' E 009°57'0 0.0
2018-Feb-23 12:00N 53°29' E 009°57'0 0.0
2018-Feb-23 11:30N 53°29' E 009°57'0 0.0
2018-Feb-23 11:00N 53°29' E 009°57'0 0.0
2018-Feb-23 10:30N 53°29' E 009°57'0 0.0
2018-Feb-23 10:00N 53°29' E 009°57'0 0.0
2018-Feb-23 09:31N 53°29' E 009°57'2 3.3
2018-Feb-23 09:00N 53°30' E 009°56'2 3.2
2018-Feb-23 08:30N 53°32' E 009°56'3 6.6
2018-Feb-23 08:00N 53°33' E 009°51'4 7.7
2018-Feb-23 07:30N 53°34' E 009°45'4 8.4
2018-Feb-23 07:00N 53°35' E 009°38'5 9.0
2018-Feb-23 06:30N 53°38' E 009°32'611.2
2018-Feb-23 06:00N 53°43' E 009°29'713.2
2018-Feb-23 05:31N 53°48' E 009°22'612.8
2018-Feb-23 05:01N 53°53' E 009°14'611.3
2018-Feb-23 04:30N 53°52' E 009°05'611.5
2018-Feb-23 04:00N 53°51' E 008°55'611.3
2018-Feb-23 03:30N 53°51' E 008°46'4 7.7
2018-Feb-23 03:00N 53°54' E 008°42'611.0
2018-Feb-23 02:29N 53°58' E 008°34'511.2
2018-Feb-23 02:00N 53°59' E 008°25'611.3
2018-Feb-23 01:29N 53°60' E 008°15'610.8
2018-Feb-23 00:57N 53°60' E 008°06'62 2.7
2018-Feb-22 02:16N 54°48' E 007°00'3 7.3
2018-Feb-22 01:50N 54°51' E 006°58'3 8.9
2018-Feb-22 01:28N 54°54' E 006°57'4 7.7
2018-Feb-22 01:00N 54°58' E 006°55'4 7.7
2018-Feb-22 00:30N 55°01' E 006°52'4 7.5
2018-Feb-21 23:58N 55°05' E 006°50'4 7.8
2018-Feb-21 23:30N 55°08' E 006°47'10 8.0
2018-Feb-21 22:15N 55°17' E 006°41'3 8.4
2018-Feb-21 21:57N 55°20' E 006°39'326 8.1
2018-Feb-20 05:48N 60°38' E 004°21'3 8.5
2018-Feb-20 05:30N 60°40' E 004°24'4 8.5
2018-Feb-20 04:59N 60°43' E 004°30'4 9.0
2018-Feb-20 04:30N 60°45' E 004°39'4 8.3
2018-Feb-20 04:00N 60°47' E 004°46'4 7.7
2018-Feb-20 03:30N 60°50' E 004°48'612.0
2018-Feb-20 03:00N 60°50' E 004°60'3 6.3
2018-Feb-20 02:30N 60°48' E 005°04'0 0.0
2018-Feb-20 02:00N 60°48' E 005°04'0 0.0
2018-Feb-20 01:30N 60°48' E 005°04'0 0.0
2018-Feb-20 01:00N 60°48' E 005°04'0 0.0
2018-Feb-20 00:30N 60°48' E 005°04'0 0.0
2018-Feb-20 00:00N 60°48' E 005°04'0 0.0
2018-Feb-19 23:30N 60°48' E 005°04'0 0.0
2018-Feb-19 23:00N 60°48' E 005°04'0 0.0
2018-Feb-19 22:30N 60°48' E 005°04'0 0.0
2018-Feb-19 22:00N 60°48' E 005°04'0 0.0
2018-Feb-19 21:30N 60°48' E 005°04'0 0.0
2018-Feb-19 21:00N 60°48' E 005°04'0 0.0
2018-Feb-19 20:30N 60°48' E 005°04'0 0.0
2018-Feb-19 20:00N 60°48' E 005°04'0 0.0
2018-Feb-19 19:30N 60°48' E 005°04'0 0.0
2018-Feb-19 19:00N 60°48' E 005°04'0 0.0
2018-Feb-19 18:30N 60°48' E 005°04'0 0.0
2018-Feb-19 18:00N 60°48' E 005°04'0 0.0
2018-Feb-19 17:30N 60°48' E 005°04'0 0.0
2018-Feb-19 17:00N 60°48' E 005°04'0 0.0
2018-Feb-19 16:30N 60°48' E 005°04'0 0.0
2018-Feb-19 16:00N 60°48' E 005°04'0 0.0
2018-Feb-19 15:30N 60°48' E 005°04'0 0.0
2018-Feb-19 15:00N 60°48' E 005°04'0 0.0
2018-Feb-19 14:30N 60°48' E 005°04'0 0.0
2018-Feb-19 14:00N 60°48' E 005°04'0 0.0
2018-Feb-19 13:30N 60°48' E 005°04'0 0.0
2018-Feb-19 13:00N 60°48' E 005°04'0 0.0
2018-Feb-19 12:30N 60°48' E 005°04'0 0.0
2018-Feb-19 12:00N 60°48' E 005°04'0 0.0
2018-Feb-19 11:30N 60°48' E 005°04'0 0.0
2018-Feb-19 11:00N 60°48' E 005°04'0 0.0
2018-Feb-19 10:30N 60°48' E 005°04'0 0.0
2018-Feb-19 10:00N 60°48' E 005°04'0 0.0
2018-Feb-19 09:30N 60°48' E 005°04'0 0.0
2018-Feb-19 09:00N 60°48' E 005°04'0 0.1
2018-Feb-19 08:30N 60°48' E 005°04'4 8.3
2018-Feb-19 08:00N 60°50' E 004°58'612.3
2018-Feb-19 07:30N 60°50' E 004°45'611.4
2018-Feb-19 07:00N 60°44' E 004°44'4 8.7
2018-Feb-19 06:30N 60°44' E 004°35'510.1
2018-Feb-19 06:00N 60°41' E 004°27'510.2
2018-Feb-19 05:30N 60°38' E 004°18'912.6
2018-Feb-19 04:46N 60°29' E 004°20'413.3
2018-Feb-19 04:28N 60°25' E 004°22'1412.8
2018-Feb-19 03:20N 60°11' E 004°26'6012.2
2018-Feb-18 22:23N 59°11' E 004°49'512.9
2018-Feb-18 22:00N 59°09' E 004°57'612.3
2018-Feb-18 21:30N 59°07' E 005°08'713.1
2018-Feb-18 21:00N 59°07' E 005°21'611.3
2018-Feb-18 20:30N 59°06' E 005°32'612.6
2018-Feb-18 20:00N 59°01' E 005°40'1 1.7
2018-Feb-18 19:28N 58°60' E 005°40'0 0.0
2018-Feb-18 18:58N 58°60' E 005°40'0 0.0
2018-Feb-18 18:28N 58°60' E 005°40'0 0.0
2018-Feb-18 17:58N 58°60' E 005°40'0 0.0
2018-Feb-18 17:28N 58°60' E 005°40'0 0.0
2018-Feb-18 16:58N 58°60' E 005°40'0 0.0
2018-Feb-18 16:28N 58°60' E 005°40'0 0.0
2018-Feb-18 15:58N 58°60' E 005°40'0 0.0
2018-Feb-18 15:28N 58°60' E 005°40'0 0.0
2018-Feb-18 14:58N 58°60' E 005°40'0 0.0
2018-Feb-18 14:28N 58°60' E 005°40'0 0.0
2018-Feb-18 13:58N 58°60' E 005°40'0 0.0
2018-Feb-18 13:28N 58°60' E 005°40'0 0.0
2018-Feb-18 12:58N 58°60' E 005°40'0 0.0
2018-Feb-18 12:28N 58°60' E 005°40'0 0.0
2018-Feb-18 11:58N 58°60' E 005°40'0 0.0
2018-Feb-18 11:25N 58°60' E 005°40'0 0.0
2018-Feb-18 10:58N 58°60' E 005°40'0 0.0
2018-Feb-18 10:29N 58°60' E 005°40'0 0.0
2018-Feb-18 10:00N 58°60' E 005°40'3 6.8
2018-Feb-18 09:31N 59°02' E 005°35'611.1
2018-Feb-18 09:00N 58°57' E 005°33'611.7
2018-Feb-18 08:30N 58°51' E 005°31'4 8.6
2018-Feb-18 08:00N 58°50' E 005°23'510.4
2018-Feb-18 07:30N 58°46' E 005°15'713.1
2018-Feb-18 07:00N 58°40' E 005°10'611.9
2018-Feb-18 06:30N 58°34' E 005°08'612.4
2018-Feb-18 06:00N 58°28' E 005°09'612.4
2018-Feb-18 05:30N 58°22' E 005°10'18312.3
2018-Feb-17 14:35N 55°19' E 005°18'212.5
2018-Feb-17 14:25N 55°17' E 005°18'512.5
2018-Feb-17 14:00N 55°12' E 005°17'712.5
2018-Feb-17 13:26N 55°05' E 005°16'612.5
2018-Feb-17 12:59N 54°59' E 005°15'912.5
2018-Feb-17 12:16N 54°50' E 005°14'312.5
2018-Feb-17 12:00N 54°47' E 005°14'612.5
2018-Feb-17 11:29N 54°40' E 005°14'612.5
2018-Feb-17 10:59N 54°34' E 005°15'612.4
2018-Feb-17 10:30N 54°28' E 005°14'712.5
2018-Feb-17 09:58N 54°22' E 005°12'1212.6
2018-Feb-17 09:03N 54°10' E 005°10'112.7
2018-Feb-17 08:59N 54°09' E 005°10'3413.1
2018-Feb-17 06:24N 53°37' E 004°52'613.9
2018-Feb-17 05:59N 53°32' E 004°49'612.7
2018-Feb-17 05:30N 53°27' E 004°43'714.0
2018-Feb-17 04:59N 53°20' E 004°38'1114.2
2018-Feb-17 04:14N 53°10' E 004°30'313.9
2018-Feb-17 03:59N 53°08' E 004°27'813.7
2018-Feb-17 03:22N 53°00' E 004°19'513.0
2018-Feb-17 03:00N 52°56' E 004°16'612.8
2018-Feb-17 02:30N 52°50' E 004°12'712.6
2018-Feb-17 01:58N 52°45' E 004°04'612.4
2018-Feb-17 01:28N 52°41' E 003°57'1012.1
2018-Feb-17 00:40N 52°34' E 003°47'312.0
2018-Feb-17 00:27N 52°32' E 003°44'611.8
2018-Feb-16 23:57N 52°27' E 003°38'1011.6
2018-Feb-16 23:03N 52°20' E 003°26'111.4
2018-Feb-16 22:56N 52°19' E 003°24'511.4
2018-Feb-16 22:30N 52°15' E 003°19'611.2
2018-Feb-16 21:59N 52°11' E 003°12'511.1
2018-Feb-16 21:30N 52°07' E 003°06'511.0
2018-Feb-16 21:00N 52°03' E 003°00'2611.4
2018-Feb-16 18:44N 51°43' E 002°33'312.1
2018-Feb-16 18:30N 51°41' E 002°30'612.3
2018-Feb-16 18:00N 51°36' E 002°24'612.7
2018-Feb-16 17:30N 51°32' E 002°17'613.0
2018-Feb-16 17:01N 51°27' E 002°11'612.6
2018-Feb-16 16:30N 51°21' E 002°08'713.1
2018-Feb-16 16:00N 51°14' E 002°05'612.3
2018-Feb-16 15:30N 51°11' E 001°56'713.6
2018-Feb-16 15:01N 51°08' E 001°47'714.2
2018-Feb-16 14:30N 51°02' E 001°39'714.8
2018-Feb-16 14:00N 50°57' E 001°31'7013.8
2018-Feb-16 08:57N 50°04' E 000°20'715.1
2018-Feb-16 08:29N 49°59' E 000°12'714.4
2018-Feb-16 08:00N 49°54' E 000°04'813.6
2018-Feb-16 07:26N 49°49' W 000°04'511.9
2018-Feb-16 07:00N 49°44' W 000°08'611.8
2018-Feb-16 06:30N 49°38' W 000°08'611.8
2018-Feb-16 06:00N 49°34' W 000°03'510.7
2018-Feb-16 05:30N 49°30' E 000°03'5 9.4
2018-Feb-16 05:00N 49°28' E 000°10'0 0.9
2018-Feb-16 04:28N 49°29' E 000°10'1 2.6
2018-Feb-16 04:00N 49°30' E 000°11'0 0.7
2018-Feb-16 03:26N 49°30' E 000°11'0 0.0
2018-Feb-16 02:56N 49°30' E 000°11'0 0.0
2018-Feb-16 02:20N 49°30' E 000°11'0 0.0
2018-Feb-16 01:56N 49°30' E 000°11'0 0.0
2018-Feb-16 01:26N 49°30' E 000°11'0 0.0
2018-Feb-16 00:56N 49°30' E 000°11'0 0.0
2018-Feb-16 00:26N 49°30' E 000°11'0 0.0
2018-Feb-15 23:56N 49°30' E 000°11'0 0.0
2018-Feb-15 23:20N 49°30' E 000°11'0 0.0
2018-Feb-15 22:56N 49°30' E 000°11'0 0.0
2018-Feb-15 22:26N 49°30' E 000°11'0 0.0
2018-Feb-15 21:56N 49°30' E 000°11'0 0.0
2018-Feb-15 21:26N 49°30' E 000°11'0 0.0
2018-Feb-15 20:56N 49°30' E 000°11'0 0.0
2018-Feb-15 20:26N 49°30' E 000°11'0 0.0
2018-Feb-15 19:56N 49°30' E 000°11'0 0.0
2018-Feb-15 19:26N 49°30' E 000°11'0 0.0
2018-Feb-15 18:50N 49°30' E 000°11'0 0.0
2018-Feb-15 18:26N 49°30' E 000°11'0 0.0
2018-Feb-15 17:56N 49°30' E 000°11'0 0.0
2018-Feb-15 17:26N 49°30' E 000°11'0 0.0
2018-Feb-15 16:56N 49°30' E 000°11'0 0.0
2018-Feb-15 16:26N 49°30' E 000°11'0 0.0
2018-Feb-15 15:56N 49°30' E 000°11'0 0.0
2018-Feb-15 15:26N 49°30' E 000°11'0 0.0
2018-Feb-15 14:50N 49°30' E 000°11'0 0.0
2018-Feb-15 14:26N 49°30' E 000°11'0 0.0
2018-Feb-15 13:56N 49°30' E 000°11'0 0.0
2018-Feb-15 13:26N 49°30' E 000°11'0 0.0
2018-Feb-15 12:56N 49°30' E 000°11'0 0.0
2018-Feb-15 12:26N 49°30' E 000°11'0 0.0
2018-Feb-15 11:56N 49°30' E 000°11'0 0.0
2018-Feb-15 11:26N 49°30' E 000°11'0 0.0
2018-Feb-15 10:56N 49°30' E 000°11'0 0.0
2018-Feb-15 10:26N 49°30' E 000°11'0 0.0
2018-Feb-15 09:56N 49°30' E 000°11'0 0.0
2018-Feb-15 09:30N 49°30' E 000°11'2 3.4
2018-Feb-15 09:00N 49°29' E 000°08'0 0.1
2018-Feb-15 08:30N 49°29' E 000°08'2 4.7
2018-Feb-15 08:00N 49°29' E 000°05'713.4
2018-Feb-15 07:30N 49°30' W 000°05'1 1.6
2018-Feb-15 06:59N 49°30' W 000°05'0 0.0
2018-Feb-15 06:29N 49°30' W 000°05'0 0.0
2018-Feb-15 05:59N 49°30' W 000°05'0 0.1
2018-Feb-15 05:29N 49°30' W 000°05'0 0.0
2018-Feb-15 04:59N 49°30' W 000°05'0 0.0
2018-Feb-15 04:29N 49°30' W 000°05'0 0.1
2018-Feb-15 03:59N 49°30' W 000°05'0 0.0
2018-Feb-15 03:29N 49°30' W 000°05'0 0.1
2018-Feb-15 02:59N 49°30' W 000°05'0 0.0
2018-Feb-15 02:29N 49°30' W 000°05'0 0.0
2018-Feb-15 01:56N 49°30' W 000°05'0 0.0
2018-Feb-15 01:29N 49°30' W 000°05'0 0.0
2018-Feb-15 00:59N 49°30' W 000°05'0 0.0
2018-Feb-15 00:29N 49°30' W 000°05'0 0.0
2018-Feb-14 23:59N 49°30' W 000°05'0 0.0
2018-Feb-14 23:29N 49°30' W 000°05'0 0.0
2018-Feb-14 22:59N 49°30' W 000°05'0 0.0
2018-Feb-14 22:31N 49°30' W 000°05'2 3.6
2018-Feb-14 22:00N 49°31' W 000°06'611.9
2018-Feb-14 21:30N 49°34' W 000°15'712.7
2018-Feb-14 20:59N 49°36' W 000°24'613.1
2018-Feb-14 20:31N 49°39' W 000°33'713.7
2018-Feb-14 20:00N 49°41' W 000°43'5514.1
2018-Feb-14 16:07N 49°53' W 002°06'110.9
2018-Feb-14 16:00N 49°53' W 002°07'2510.2
2018-Feb-14 13:31N 49°51' W 002°47'110.2
2018-Feb-14 13:27N 49°50' W 002°48'16 9.0
2018-Feb-14 11:38N 49°49' W 003°13'1 7.7
2018-Feb-14 11:30N 49°49' W 003°15'4 8.1
2018-Feb-14 11:00N 49°49' W 003°21'7 8.3
2018-Feb-14 10:13N 49°50' W 003°31'2 8.9
2018-Feb-14 10:00N 49°50' W 003°34'7 9.3
2018-Feb-14 09:16N 49°50' W 003°44'  
Track history (hours):
 
Tides and Currents Weather Stations Pressure Air Temp Water Temp Dewpoint Dewpoint Depression Visibility Wind Speed Wind Dir Waves Ship Positions

X23df,-a

Last reported at 2018-Feb-24 08:00 UTC. Time now 2018-Feb-24 08:30 UTC.
Position N 53°29' E 009°57'.

Length 93 m; draft 5.6 m.

Type: Tanker. MMSI: 220397594.

Date/timePositionNaut miles runAvg speedWind from/ knotsBaromVisibWave heightAir tempDewpointWater temp
2018-Feb-24 08:00N 53°29' E 009°57'0 0.0
2018-Feb-24 07:24N 53°29' E 009°57'0 0.0
2018-Feb-24 07:00N 53°29' E 009°57'0 0.0
2018-Feb-24 06:30N 53°29' E 009°57'0 0.0
2018-Feb-24 06:00N 53°29' E 009°57'0 0.0
2018-Feb-24 05:30N 53°29' E 009°57'0 0.0
2018-Feb-24 04:57N 53°29' E 009°57'0 0.0
2018-Feb-24 04:30N 53°29' E 009°57'0 0.0
2018-Feb-24 04:00N 53°29' E 009°57'0 0.0
2018-Feb-24 03:30N 53°29' E 009°57'0 0.0
2018-Feb-24 02:57N 53°29' E 009°57'0 0.0
2018-Feb-24 02:30N 53°29' E 009°57'0 0.0
2018-Feb-24 01:57N 53°29' E 009°57'0 0.0
2018-Feb-24 01:24N 53°29' E 009°57'0 0.0
2018-Feb-24 01:00N 53°29' E 009°57'0 0.0
2018-Feb-24 00:30N 53°29' E 009°57'0 0.0
2018-Feb-24 00:00N 53°29' E 009°57'0 0.0
2018-Feb-23 23:27N 53°29' E 009°57'0 0.0
2018-Feb-23 22:57N 53°29' E 009°57'0 0.0
2018-Feb-23 22:27N 53°29' E 009°57'0 0.0
2018-Feb-23 21:51N 53°29' E 009°57'0 0.0
2018-Feb-23 21:30N 53°29' E 009°57'0 0.0
2018-Feb-23 20:57N 53°29' E 009°57'0 0.0
2018-Feb-23 20:30N 53°29' E 009°57'0 0.0
2018-Feb-23 19:57N 53°29' E 009°57'0 0.0
2018-Feb-23 19:27N 53°29' E 009°57'0 0.0
2018-Feb-23 19:00N 53°29' E 009°57'0 0.0
2018-Feb-23 18:27N 53°29' E 009°57'0 0.0
2018-Feb-23 17:45N 53°29' E 009°57'0 0.0
2018-Feb-23 17:30N 53°29' E 009°57'0 0.0
2018-Feb-23 17:00N 53°29' E 009°57'0 0.0
2018-Feb-23 16:30N 53°29' E 009°57'0 0.0
2018-Feb-23 15:57N 53°29' E 009°57'0 0.0
2018-Feb-23 15:30N 53°29' E 009°57'0 0.0
2018-Feb-23 14:57N 53°29' E 009°57'0 0.0
2018-Feb-23 14:27N 53°29' E 009°57'0 0.0
2018-Feb-23 13:54N 53°29' E 009°57'0 0.0
2018-Feb-23 13:27N 53°29' E 009°57'0 0.0
2018-Feb-23 13:00N 53°29' E 009°57'0 0.0
2018-Feb-23 12:30N 53°29' E 009°57'0 0.0
2018-Feb-23 12:00N 53°29' E 009°57'0 0.0
2018-Feb-23 11:30N 53°29' E 009°57'0 0.0
2018-Feb-23 11:00N 53°29' E 009°57'0 0.0
2018-Feb-23 10:30N 53°29' E 009°57'0 0.0
2018-Feb-23 10:00N 53°29' E 009°57'0 0.0
2018-Feb-23 09:31N 53°29' E 009°57'2 3.3
2018-Feb-23 09:00N 53°30' E 009°56'2 3.2
2018-Feb-23 08:30N 53°32' E 009°56'3 6.6
2018-Feb-23 08:00N 53°33' E 009°51'4 7.7
2018-Feb-23 07:30N 53°34' E 009°45'4 8.4
2018-Feb-23 07:00N 53°35' E 009°38'5 9.0
2018-Feb-23 06:30N 53°38' E 009°32'611.2
2018-Feb-23 06:00N 53°43' E 009°29'713.2
2018-Feb-23 05:31N 53°48' E 009°22'612.8
2018-Feb-23 05:01N 53°53' E 009°14'611.3
2018-Feb-23 04:30N 53°52' E 009°05'611.5
2018-Feb-23 04:00N 53°51' E 008°55'611.3
2018-Feb-23 03:30N 53°51' E 008°46'4 7.7
2018-Feb-23 03:00N 53°54' E 008°42'611.0
2018-Feb-23 02:29N 53°58' E 008°34'511.2
2018-Feb-23 02:00N 53°59' E 008°25'611.3
2018-Feb-23 01:29N 53°60' E 008°15'610.8
2018-Feb-23 00:57N 53°60' E 008°06'62 2.7
2018-Feb-22 02:16N 54°48' E 007°00'3 7.3
2018-Feb-22 01:50N 54°51' E 006°58'3 8.9
2018-Feb-22 01:28N 54°54' E 006°57'4 7.7
2018-Feb-22 01:00N 54°58' E 006°55'4 7.7
2018-Feb-22 00:30N 55°01' E 006°52'4 7.5
2018-Feb-21 23:58N 55°05' E 006°50'4 7.8
2018-Feb-21 23:30N 55°08' E 006°47'10 8.0
2018-Feb-21 22:15N 55°17' E 006°41'3 8.4
2018-Feb-21 21:57N 55°20' E 006°39'326 8.1
2018-Feb-20 05:48N 60°38' E 004°21'3 8.5
2018-Feb-20 05:30N 60°40' E 004°24'4 8.5
2018-Feb-20 04:59N 60°43' E 004°30'4 9.0
2018-Feb-20 04:30N 60°45' E 004°39'4 8.3
2018-Feb-20 04:00N 60°47' E 004°46'4 7.7
2018-Feb-20 03:30N 60°50' E 004°48'612.0
2018-Feb-20 03:00N 60°50' E 004°60'3 6.3
2018-Feb-20 02:30N 60°48' E 005°04'0 0.0
2018-Feb-20 02:00N 60°48' E 005°04'0 0.0
2018-Feb-20 01:30N 60°48' E 005°04'0 0.0
2018-Feb-20 01:00N 60°48' E 005°04'0 0.0
2018-Feb-20 00:30N 60°48' E 005°04'0 0.0
2018-Feb-20 00:00N 60°48' E 005°04'0 0.0
2018-Feb-19 23:30N 60°48' E 005°04'0 0.0
2018-Feb-19 23:00N 60°48' E 005°04'0 0.0
2018-Feb-19 22:30N 60°48' E 005°04'0 0.0
2018-Feb-19 22:00N 60°48' E 005°04'0 0.0
2018-Feb-19 21:30N 60°48' E 005°04'0 0.0
2018-Feb-19 21:00N 60°48' E 005°04'0 0.0
2018-Feb-19 20:30N 60°48' E 005°04'0 0.0
2018-Feb-19 20:00N 60°48' E 005°04'0 0.0
2018-Feb-19 19:30N 60°48' E 005°04'0 0.0
2018-Feb-19 19:00N 60°48' E 005°04'0 0.0
2018-Feb-19 18:30N 60°48' E 005°04'0 0.0
2018-Feb-19 18:00N 60°48' E 005°04'0 0.0
2018-Feb-19 17:30N 60°48' E 005°04'0 0.0
2018-Feb-19 17:00N 60°48' E 005°04'0 0.0
2018-Feb-19 16:30N 60°48' E 005°04'0 0.0
2018-Feb-19 16:00N 60°48' E 005°04'0 0.0
2018-Feb-19 15:30N 60°48' E 005°04'0 0.0
2018-Feb-19 15:00N 60°48' E 005°04'0 0.0
2018-Feb-19 14:30N 60°48' E 005°04'0 0.0
2018-Feb-19 14:00N 60°48' E 005°04'0 0.0
2018-Feb-19 13:30N 60°48' E 005°04'0 0.0
2018-Feb-19 13:00N 60°48' E 005°04'0 0.0
2018-Feb-19 12:30N 60°48' E 005°04'0 0.0
2018-Feb-19 12:00N 60°48' E 005°04'0 0.0
2018-Feb-19 11:30N 60°48' E 005°04'0 0.0
2018-Feb-19 11:00N 60°48' E 005°04'0 0.0
2018-Feb-19 10:30N 60°48' E 005°04'0 0.0
2018-Feb-19 10:00N 60°48' E 005°04'0 0.0
2018-Feb-19 09:30N 60°48' E 005°04'0 0.0
2018-Feb-19 09:00N 60°48' E 005°04'0 0.1
2018-Feb-19 08:30N 60°48' E 005°04'4 8.3
2018-Feb-19 08:00N 60°50' E 004°58'612.3
2018-Feb-19 07:30N 60°50' E 004°45'611.4
2018-Feb-19 07:00N 60°44' E 004°44'4 8.7
2018-Feb-19 06:30N 60°44' E 004°35'510.1
2018-Feb-19 06:00N 60°41' E 004°27'510.2
2018-Feb-19 05:30N 60°38' E 004°18'912.6
2018-Feb-19 04:46N 60°29' E 004°20'413.3
2018-Feb-19 04:28N 60°25' E 004°22'1412.8
2018-Feb-19 03:20N 60°11' E 004°26'6012.2
2018-Feb-18 22:23N 59°11' E 004°49'512.9
2018-Feb-18 22:00N 59°09' E 004°57'612.3
2018-Feb-18 21:30N 59°07' E 005°08'713.1
2018-Feb-18 21:00N 59°07' E 005°21'611.3
2018-Feb-18 20:30N 59°06' E 005°32'612.6
2018-Feb-18 20:00N 59°01' E 005°40'1 1.7
2018-Feb-18 19:28N 58°60' E 005°40'0 0.0
2018-Feb-18 18:58N 58°60' E 005°40'0 0.0
2018-Feb-18 18:28N 58°60' E 005°40'0 0.0
2018-Feb-18 17:58N 58°60' E 005°40'0 0.0
2018-Feb-18 17:28N 58°60' E 005°40'0 0.0
2018-Feb-18 16:58N 58°60' E 005°40'0 0.0
2018-Feb-18 16:28N 58°60' E 005°40'0 0.0
2018-Feb-18 15:58N 58°60' E 005°40'0 0.0
2018-Feb-18 15:28N 58°60' E 005°40'0 0.0
2018-Feb-18 14:58N 58°60' E 005°40'0 0.0
2018-Feb-18 14:28N 58°60' E 005°40'0 0.0
2018-Feb-18 13:58N 58°60' E 005°40'0 0.0
2018-Feb-18 13:28N 58°60' E 005°40'0 0.0
2018-Feb-18 12:58N 58°60' E 005°40'0 0.0
2018-Feb-18 12:28N 58°60' E 005°40'0 0.0
2018-Feb-18 11:58N 58°60' E 005°40'0 0.0
2018-Feb-18 11:25N 58°60' E 005°40'0 0.0
2018-Feb-18 10:58N 58°60' E 005°40'0 0.0
2018-Feb-18 10:29N 58°60' E 005°40'0 0.0
2018-Feb-18 10:00N 58°60' E 005°40'3 6.8
2018-Feb-18 09:31N 59°02' E 005°35'611.1
2018-Feb-18 09:00N 58°57' E 005°33'611.7
2018-Feb-18 08:30N 58°51' E 005°31'4 8.6
2018-Feb-18 08:00N 58°50' E 005°23'510.4
2018-Feb-18 07:30N 58°46' E 005°15'713.1
2018-Feb-18 07:00N 58°40' E 005°10'611.9
2018-Feb-18 06:30N 58°34' E 005°08'612.4
2018-Feb-18 06:00N 58°28' E 005°09'612.4
2018-Feb-18 05:30N 58°22' E 005°10'18312.3
2018-Feb-17 14:35N 55°19' E 005°18'212.5
2018-Feb-17 14:25N 55°17' E 005°18'512.5
2018-Feb-17 14:00N 55°12' E 005°17'712.5
2018-Feb-17 13:26N 55°05' E 005°16'612.5
2018-Feb-17 12:59N 54°59' E 005°15'912.5
2018-Feb-17 12:16N 54°50' E 005°14'312.5
2018-Feb-17 12:00N 54°47' E 005°14'612.5
2018-Feb-17 11:29N 54°40' E 005°14'612.5
2018-Feb-17 10:59N 54°34' E 005°15'612.4
2018-Feb-17 10:30N 54°28' E 005°14'712.5
2018-Feb-17 09:58N 54°22' E 005°12'1212.6
2018-Feb-17 09:03N 54°10' E 005°10'112.7
2018-Feb-17 08:59N 54°09' E 005°10'3413.1
2018-Feb-17 06:24N 53°37' E 004°52'613.9
2018-Feb-17 05:59N 53°32' E 004°49'612.7
2018-Feb-17 05:30N 53°27' E 004°43'714.0
2018-Feb-17 04:59N 53°20' E 004°38'1114.2
2018-Feb-17 04:14N 53°10' E 004°30'313.9
2018-Feb-17 03:59N 53°08' E 004°27'813.7
2018-Feb-17 03:22N 53°00' E 004°19'513.0
2018-Feb-17 03:00N 52°56' E 004°16'612.8
2018-Feb-17 02:30N 52°50' E 004°12'712.6
2018-Feb-17 01:58N 52°45' E 004°04'612.4
2018-Feb-17 01:28N 52°41' E 003°57'1012.1
2018-Feb-17 00:40N 52°34' E 003°47'312.0
2018-Feb-17 00:27N 52°32' E 003°44'611.8
2018-Feb-16 23:57N 52°27' E 003°38'1011.6
2018-Feb-16 23:03N 52°20' E 003°26'111.4
2018-Feb-16 22:56N 52°19' E 003°24'511.4
2018-Feb-16 22:30N 52°15' E 003°19'611.2
2018-Feb-16 21:59N 52°11' E 003°12'511.1
2018-Feb-16 21:30N 52°07' E 003°06'511.0
2018-Feb-16 21:00N 52°03' E 003°00'2611.4
2018-Feb-16 18:44N 51°43' E 002°33'312.1
2018-Feb-16 18:30N 51°41' E 002°30'612.3
2018-Feb-16 18:00N 51°36' E 002°24'612.7
2018-Feb-16 17:30N 51°32' E 002°17'613.0
2018-Feb-16 17:01N 51°27' E 002°11'612.6
2018-Feb-16 16:30N 51°21' E 002°08'713.1
2018-Feb-16 16:00N 51°14' E 002°05'612.3
2018-Feb-16 15:30N 51°11' E 001°56'713.6
2018-Feb-16 15:01N 51°08' E 001°47'714.2
2018-Feb-16 14:30N 51°02' E 001°39'714.8
2018-Feb-16 14:00N 50°57' E 001°31'7013.8
2018-Feb-16 08:57N 50°04' E 000°20'715.1
2018-Feb-16 08:29N 49°59' E 000°12'714.4
2018-Feb-16 08:00N 49°54' E 000°04'813.6
2018-Feb-16 07:26N 49°49' W 000°04'511.9
2018-Feb-16 07:00N 49°44' W 000°08'611.8
2018-Feb-16 06:30N 49°38' W 000°08'611.8
2018-Feb-16 06:00N 49°34' W 000°03'510.7
2018-Feb-16 05:30N 49°30' E 000°03'5 9.4
2018-Feb-16 05:00N 49°28' E 000°10'0 0.9
2018-Feb-16 04:28N 49°29' E 000°10'1 2.6
2018-Feb-16 04:00N 49°30' E 000°11'0 0.7
2018-Feb-16 03:26N 49°30' E 000°11'0 0.0
2018-Feb-16 02:56N 49°30' E 000°11'0 0.0
2018-Feb-16 02:20N 49°30' E 000°11'0 0.0
2018-Feb-16 01:56N 49°30' E 000°11'0 0.0
2018-Feb-16 01:26N 49°30' E 000°11'0 0.0
2018-Feb-16 00:56N 49°30' E 000°11'0 0.0
2018-Feb-16 00:26N 49°30' E 000°11'0 0.0
2018-Feb-15 23:56N 49°30' E 000°11'0 0.0
2018-Feb-15 23:20N 49°30' E 000°11'0 0.0
2018-Feb-15 22:56N 49°30' E 000°11'0 0.0
2018-Feb-15 22:26N 49°30' E 000°11'0 0.0
2018-Feb-15 21:56N 49°30' E 000°11'0 0.0
2018-Feb-15 21:26N 49°30' E 000°11'0 0.0
2018-Feb-15 20:56N 49°30' E 000°11'0 0.0
2018-Feb-15 20:26N 49°30' E 000°11'0 0.0
2018-Feb-15 19:56N 49°30' E 000°11'0 0.0
2018-Feb-15 19:26N 49°30' E 000°11'0 0.0
2018-Feb-15 18:50N 49°30' E 000°11'0 0.0
2018-Feb-15 18:26N 49°30' E 000°11'0 0.0
2018-Feb-15 17:56N 49°30' E 000°11'0 0.0
2018-Feb-15 17:26N 49°30' E 000°11'0 0.0
2018-Feb-15 16:56N 49°30' E 000°11'0 0.0
2018-Feb-15 16:26N 49°30' E 000°11'0 0.0
2018-Feb-15 15:56N 49°30' E 000°11'0 0.0
2018-Feb-15 15:26N 49°30' E 000°11'0 0.0
2018-Feb-15 14:50N 49°30' E 000°11'0 0.0
2018-Feb-15 14:26N 49°30' E 000°11'0 0.0
2018-Feb-15 13:56N 49°30' E 000°11'0 0.0
2018-Feb-15 13:26N 49°30' E 000°11'0 0.0
2018-Feb-15 12:56N 49°30' E 000°11'0 0.0
2018-Feb-15 12:26N 49°30' E 000°11'0 0.0
2018-Feb-15 11:56N 49°30' E 000°11'0 0.0
2018-Feb-15 11:26N 49°30' E 000°11'0 0.0
2018-Feb-15 10:56N 49°30' E 000°11'0 0.0
2018-Feb-15 10:26N 49°30' E 000°11'0 0.0
2018-Feb-15 09:56N 49°30' E 000°11'0 0.0
2018-Feb-15 09:30N 49°30' E 000°11'2 3.4
2018-Feb-15 09:00N 49°29' E 000°08'0 0.1
2018-Feb-15 08:30N 49°29' E 000°08'2 4.7
2018-Feb-15 08:00N 49°29' E 000°05'713.4
2018-Feb-15 07:30N 49°30' W 000°05'1 1.6
2018-Feb-15 06:59N 49°30' W 000°05'0 0.0
2018-Feb-15 06:29N 49°30' W 000°05'0 0.0
2018-Feb-15 05:59N 49°30' W 000°05'0 0.1
2018-Feb-15 05:29N 49°30' W 000°05'0 0.0
2018-Feb-15 04:59N 49°30' W 000°05'0 0.0
2018-Feb-15 04:29N 49°30' W 000°05'0 0.1
2018-Feb-15 03:59N 49°30' W 000°05'0 0.0
2018-Feb-15 03:29N 49°30' W 000°05'0 0.1
2018-Feb-15 02:59N 49°30' W 000°05'0 0.0
2018-Feb-15 02:29N 49°30' W 000°05'0 0.0
2018-Feb-15 01:56N 49°30' W 000°05'0 0.0
2018-Feb-15 01:29N 49°30' W 000°05'0 0.0
2018-Feb-15 00:59N 49°30' W 000°05'0 0.0
2018-Feb-15 00:29N 49°30' W 000°05'0 0.0
2018-Feb-14 23:59N 49°30' W 000°05'0 0.0
2018-Feb-14 23:29N 49°30' W 000°05'0 0.0
2018-Feb-14 22:59N 49°30' W 000°05'0 0.0
2018-Feb-14 22:31N 49°30' W 000°05'2 3.6
2018-Feb-14 22:00N 49°31' W 000°06'611.9
2018-Feb-14 21:30N 49°34' W 000°15'712.7
2018-Feb-14 20:59N 49°36' W 000°24'613.1
2018-Feb-14 20:31N 49°39' W 000°33'713.7
2018-Feb-14 20:00N 49°41' W 000°43'5514.1
2018-Feb-14 16:07N 49°53' W 002°06'110.9
2018-Feb-14 16:00N 49°53' W 002°07'2510.2
2018-Feb-14 13:31N 49°51' W 002°47'110.2
2018-Feb-14 13:27N 49°50' W 002°48'16 9.0
2018-Feb-14 11:38N 49°49' W 003°13'1 7.7
2018-Feb-14 11:30N 49°49' W 003°15'4 8.1
2018-Feb-14 11:00N 49°49' W 003°21'7 8.3
2018-Feb-14 10:13N 49°50' W 003°31'2 8.9
2018-Feb-14 10:00N 49°50' W 003°34'7 9.3
2018-Feb-14 09:16N 49°50' W 003°44'  

Dump ship's entire track history